KISQ/ISQ METAR and TAF weather

Enter ICAO airport designator
Station Type Date Time Source
KISQ METAR 2018/12/11 22:15 UTC NOAA

KISQ 112215Z AUTO 30005KT 10SM OVC022 M02/M04 A3001 RMK AO2 T10181045


Station Type Date Time Source
KISQ Decoded METAR 2018/12/11 22:15 UTC NOAA

Manistique, Schoolcraft County Airport, MI, United States (KISQ) 45-58-29N 086-10-19W
Dec 11, 2018 - 05:15 PM EST / 2018.12.11 2215 UTC
Wind: from the WNW (300 degrees) at 6 MPH (5 KT):0
Visibility: 10 mile(s):0
Sky conditions: overcast
Temperature: 28.8 F (-1.8 C)
Windchill: 23 F (-5 C):1
Dew Point: 23.9 F (-4.5 C)
Relative Humidity: 81%
Pressure (altimeter): 30.01 in. Hg (1016 hPa)
ob: KISQ 112215Z AUTO 30005KT 10SM OVC022 M02/M04 A3001 RMK AO2 T10181045
cycle: 22

Station Type Date Time Source
KISQ TAF UTC NOAA

Error!


Example: see airport list